createdAt,value
2023-05-11T00:00:45.459Z,13.52
2023-05-11T00:01:45.376Z,13.56
2023-05-11T00:02:45.370Z,13.52
2023-05-11T00:03:45.283Z,13.50
2023-05-11T00:04:45.215Z,13.54
2023-05-11T00:05:45.044Z,13.57
2023-05-11T00:06:44.970Z,13.59
2023-05-11T00:07:44.886Z,13.50
2023-05-11T00:08:44.804Z,13.56
2023-05-11T00:09:44.716Z,13.59
2023-05-11T00:10:44.645Z,13.57
2023-05-11T00:11:44.558Z,13.50
2023-05-11T00:12:44.486Z,13.52
2023-05-11T00:13:44.405Z,13.54
2023-05-11T00:14:44.324Z,13.50
2023-05-11T00:15:44.246Z,13.50
2023-05-11T00:16:44.160Z,13.50
2023-05-11T00:17:44.136Z,13.49
2023-05-11T00:18:44.052Z,13.57
2023-05-11T00:19:43.961Z,13.56
2023-05-11T00:20:43.850Z,13.53
2023-05-11T00:21:43.763Z,13.49
2023-05-11T00:22:44.972Z,13.57
2023-05-11T00:23:43.603Z,13.54
2023-05-11T00:24:43.520Z,13.57
2023-05-11T00:25:43.445Z,13.59
2023-05-11T00:26:43.373Z,13.60
2023-05-11T00:27:43.281Z,13.65
2023-05-11T00:28:43.204Z,13.60
2023-05-11T00:29:43.129Z,13.67
2023-05-11T00:30:43.040Z,13.65
2023-05-11T00:31:43.002Z,13.63
2023-05-11T00:32:42.928Z,13.57
2023-05-11T00:33:42.801Z,13.65
2023-05-11T00:34:42.730Z,13.63
2023-05-11T00:35:42.640Z,13.67
2023-05-11T00:36:42.560Z,13.63
2023-05-11T00:37:42.480Z,13.63
2023-05-11T00:38:42.406Z,13.57
2023-05-11T00:39:42.321Z,13.50
2023-05-11T00:40:42.239Z,13.50
2023-05-11T00:41:42.174Z,13.50
2023-05-11T00:42:42.094Z,13.53
2023-05-11T00:43:41.996Z,13.56
2023-05-11T00:44:41.919Z,13.57
2023-05-11T00:45:41.849Z,13.54
2023-05-11T00:46:41.795Z,13.54
2023-05-11T00:47:41.698Z,13.57
2023-05-11T00:48:41.596Z,13.62
2023-05-11T00:49:41.513Z,13.59
2023-05-11T00:50:41.460Z,13.54
2023-05-11T00:51:41.357Z,13.59
2023-05-11T00:52:41.310Z,13.60
2023-05-11T00:53:41.205Z,13.60
2023-05-11T00:54:41.119Z,13.50
2023-05-11T00:55:41.047Z,13.56
2023-05-11T00:56:40.964Z,13.52
2023-05-11T00:57:40.879Z,13.53
2023-05-11T00:58:40.804Z,13.57
2023-05-11T00:59:40.720Z,13.52
2023-05-11T01:00:40.667Z,13.53
2023-05-11T01:01:40.560Z,13.49
2023-05-11T01:02:40.682Z,13.52
2023-05-11T01:03:40.401Z,13.46
2023-05-11T01:04:40.315Z,13.49
2023-05-11T01:05:40.247Z,13.52
2023-05-11T01:06:40.168Z,13.49
2023-05-11T01:07:40.084Z,13.47
2023-05-11T01:08:40.002Z,13.49
2023-05-11T01:09:39.931Z,13.49
2023-05-11T01:10:39.844Z,13.49
2023-05-11T01:11:39.791Z,13.42
2023-05-11T01:12:39.682Z,13.42
2023-05-11T01:13:39.604Z,13.42
2023-05-11T01:14:39.525Z,13.38
2023-05-11T01:15:39.445Z,13.38
2023-05-11T01:16:39.395Z,13.41
2023-05-11T01:17:39.356Z,13.39
2023-05-11T01:18:39.219Z,13.39
2023-05-11T01:19:39.118Z,13.39
2023-05-11T01:20:39.040Z,13.38
2023-05-11T01:21:38.962Z,13.37
2023-05-11T01:22:38.905Z,13.35
2023-05-11T01:23:38.808Z,13.33
2023-05-11T01:24:38.721Z,13.38
2023-05-11T01:25:38.643Z,13.38
2023-05-11T01:26:38.579Z,13.37
2023-05-11T01:27:38.485Z,13.27
2023-05-11T01:28:38.400Z,13.41
2023-05-11T01:29:38.324Z,13.41
2023-05-11T01:30:38.245Z,13.30
2023-05-11T01:31:38.209Z,13.41
2023-05-11T01:32:40.893Z,13.37
2023-05-11T01:33:38.003Z,13.38
2023-05-11T01:34:37.923Z,13.38
2023-05-11T01:35:37.846Z,13.35
2023-05-11T01:36:37.766Z,13.28
2023-05-11T01:37:37.677Z,13.23
2023-05-11T01:38:37.626Z,13.23
2023-05-11T01:39:37.520Z,13.35
2023-05-11T01:40:37.437Z,13.35
2023-05-11T01:41:37.366Z,13.22
2023-05-11T01:42:37.281Z,13.30
2023-05-11T01:43:37.201Z,13.23
2023-05-11T01:44:37.126Z,13.23
2023-05-11T01:45:37.046Z,13.22
2023-05-11T01:46:37.069Z,13.27
2023-05-11T01:47:36.897Z,13.30
2023-05-11T01:48:36.794Z,13.35
2023-05-11T01:49:36.714Z,13.19
2023-05-11T01:50:36.639Z,13.31
2023-05-11T01:51:36.568Z,13.30
2023-05-11T01:52:36.480Z,13.35
2023-05-11T01:53:36.408Z,13.37
2023-05-11T01:54:36.317Z,13.30
2023-05-11T01:55:36.244Z,13.33
2023-05-11T01:56:36.156Z,13.31
2023-05-11T01:57:36.083Z,13.35
2023-05-11T01:58:35.996Z,13.35
2023-05-11T01:59:35.919Z,13.33
2023-05-11T02:00:35.835Z,13.41
2023-05-11T02:01:35.826Z,13.41
2023-05-11T02:02:35.760Z,13.44
2023-05-11T02:03:35.790Z,13.37
2023-05-11T02:04:35.514Z,13.37
2023-05-11T02:05:35.449Z,13.38
2023-05-11T02:06:35.354Z,13.38
2023-05-11T02:07:35.272Z,13.37
2023-05-11T02:08:35.194Z,13.39
2023-05-11T02:09:35.121Z,13.39
2023-05-11T02:10:35.042Z,13.44
2023-05-11T02:11:34.955Z,13.39
2023-05-11T02:12:34.879Z,13.42
2023-05-11T02:13:34.798Z,13.47
2023-05-11T02:14:34.745Z,13.42
2023-05-11T02:15:34.630Z,13.41
2023-05-11T02:16:34.551Z,13.46
2023-05-11T02:17:34.479Z,13.41
2023-05-11T02:18:34.428Z,13.41
2023-05-11T02:19:34.311Z,13.39
2023-05-11T02:20:34.235Z,13.46
2023-05-11T02:21:34.156Z,13.49
2023-05-11T02:22:34.077Z,13.44
2023-05-11T02:23:33.988Z,13.47
2023-05-11T02:24:33.908Z,13.46
2023-05-11T02:25:33.838Z,13.47
2023-05-11T02:26:33.770Z,13.53
2023-05-11T02:27:33.680Z,13.52
2023-05-11T02:28:33.595Z,13.50
2023-05-11T02:29:33.510Z,13.42
2023-05-11T02:30:33.448Z,13.52
2023-05-11T02:31:33.415Z,13.54
2023-05-11T02:32:33.320Z,13.46
2023-05-11T02:33:33.200Z,13.50
2023-05-11T02:34:33.113Z,13.52
2023-05-11T02:35:33.050Z,13.50
2023-05-11T02:36:32.952Z,13.53
2023-05-11T02:37:32.867Z,13.56
2023-05-11T02:38:32.798Z,13.59
2023-05-11T02:39:32.713Z,13.56
2023-05-11T02:40:32.638Z,13.53
2023-05-11T02:41:32.568Z,13.53
2023-05-11T02:42:32.472Z,13.57
2023-05-11T02:43:32.399Z,13.47
2023-05-11T02:44:32.312Z,13.41
2023-05-11T02:45:32.238Z,13.44
2023-05-11T02:46:32.176Z,13.39
2023-05-11T02:47:32.178Z,13.42
2023-05-11T02:48:31.991Z,13.42
2023-05-11T02:49:31.920Z,13.50
2023-05-11T02:50:31.834Z,13.47
2023-05-11T02:51:31.766Z,13.47
2023-05-11T02:52:31.691Z,13.52
2023-05-11T02:53:33.276Z,13.47
2023-05-11T02:54:31.517Z,13.46
2023-05-11T02:55:31.438Z,13.49
2023-05-11T02:56:31.359Z,13.47
2023-05-11T02:57:31.276Z,13.52
2023-05-11T02:58:31.220Z,13.53
2023-05-11T02:59:31.123Z,13.52
2023-05-11T03:00:31.074Z,13.54
2023-05-11T03:01:31.107Z,13.50
2023-05-11T03:02:31.131Z,13.50
2023-05-11T03:03:30.943Z,13.53
2023-05-11T03:04:30.723Z,13.56
2023-05-11T03:05:30.636Z,13.52
2023-05-11T03:06:30.560Z,13.54
2023-05-11T03:07:30.486Z,13.63
2023-05-11T03:08:30.394Z,13.60
2023-05-11T03:09:30.316Z,13.60
2023-05-11T03:10:30.237Z,13.65
2023-05-11T03:11:30.155Z,13.67
2023-05-11T03:12:30.080Z,13.72
2023-05-11T03:13:30.004Z,13.63
2023-05-11T03:14:29.914Z,13.72
2023-05-11T03:15:29.845Z,13.70
2023-05-11T03:16:29.773Z,13.74
2023-05-11T03:17:29.701Z,13.67
2023-05-11T03:18:29.686Z,13.71
2023-05-11T03:19:29.550Z,13.78
2023-05-11T03:20:29.439Z,13.72
2023-05-11T03:21:29.356Z,13.67
2023-05-11T03:22:29.282Z,13.70
2023-05-11T03:23:29.195Z,13.71
2023-05-11T03:24:29.122Z,13.74
2023-05-11T03:25:29.041Z,13.71
2023-05-11T03:26:28.963Z,13.63
2023-05-11T03:27:28.885Z,13.70
2023-05-11T03:28:28.801Z,13.67
2023-05-11T03:29:28.725Z,13.71
2023-05-11T03:30:28.639Z,13.65
2023-05-11T03:31:28.574Z,13.67
2023-05-11T03:32:28.530Z,13.70
2023-05-11T03:33:28.406Z,13.70
2023-05-11T03:34:28.330Z,13.68
2023-05-11T03:35:28.243Z,13.63
2023-05-11T03:36:28.167Z,13.62
2023-05-11T03:37:28.087Z,13.63
2023-05-11T03:38:28.006Z,13.67
2023-05-11T03:39:27.926Z,13.62
2023-05-11T03:40:27.872Z,13.60
2023-05-11T03:41:27.796Z,13.62
2023-05-11T03:42:27.718Z,13.60
2023-05-11T03:43:27.611Z,13.62
2023-05-11T03:44:27.530Z,13.62
2023-05-11T03:45:27.482Z,13.57
2023-05-11T03:46:27.392Z,13.62
2023-05-11T03:47:27.314Z,13.67
2023-05-11T03:48:27.208Z,13.70
2023-05-11T03:49:27.123Z,13.67
2023-05-11T03:50:27.254Z,13.67
2023-05-11T03:51:26.973Z,13.63
2023-05-11T03:52:26.891Z,13.70
2023-05-11T03:53:26.814Z,13.75
2023-05-11T03:54:26.738Z,13.65
2023-05-11T03:55:26.647Z,13.72
2023-05-11T03:56:26.566Z,13.78
2023-05-11T03:57:26.504Z,13.75
2023-05-11T03:58:26.416Z,13.74
2023-05-11T03:59:26.353Z,13.72
2023-05-11T04:00:26.249Z,13.72
2023-05-11T04:01:26.164Z,13.79
2023-05-11T04:02:26.135Z,13.74
2023-05-11T04:03:26.173Z,13.74
2023-05-11T04:04:25.973Z,13.75
2023-05-11T04:05:25.850Z,13.74
2023-05-11T04:06:25.805Z,13.74
2023-05-11T04:07:25.689Z,13.74
2023-05-11T04:08:25.605Z,13.70
2023-05-11T04:09:25.542Z,13.67
2023-05-11T04:10:25.451Z,13.67
2023-05-11T04:11:25.373Z,13.65
2023-05-11T04:12:25.296Z,13.63
2023-05-11T04:13:25.209Z,13.65
2023-05-11T04:14:25.143Z,13.63
2023-05-11T04:15:25.049Z,13.65
2023-05-11T04:16:25.017Z,13.56
2023-05-11T04:17:24.930Z,13.56
2023-05-11T04:18:24.840Z,13.52
2023-05-11T04:19:24.727Z,13.54
2023-05-11T04:20:24.661Z,13.47
2023-05-11T04:21:24.575Z,13.50
2023-05-11T04:22:24.492Z,13.50
2023-05-11T04:23:24.420Z,13.41
2023-05-11T04:24:24.328Z,13.44
2023-05-11T04:25:24.252Z,13.38
2023-05-11T04:26:24.170Z,13.42
2023-05-11T04:27:24.088Z,13.38
2023-05-11T04:28:24.006Z,13.38
2023-05-11T04:29:23.929Z,13.31
2023-05-11T04:30:23.860Z,13.31
2023-05-11T04:31:23.825Z,13.39
2023-05-11T04:32:23.742Z,13.31
2023-05-11T04:33:23.608Z,13.41
2023-05-11T04:34:23.533Z,13.37
2023-05-11T04:35:23.446Z,13.30
2023-05-11T04:36:23.382Z,13.37
2023-05-11T04:37:23.292Z,13.38
2023-05-11T04:38:23.241Z,13.39
2023-05-11T04:39:23.131Z,13.33
2023-05-11T04:40:23.045Z,13.38
2023-05-11T04:41:22.970Z,13.33
2023-05-11T04:42:22.890Z,13.39
2023-05-11T04:43:22.802Z,13.37
2023-05-11T04:44:22.746Z,13.31
2023-05-11T04:45:22.662Z,13.35
2023-05-11T04:46:22.594Z,13.30
2023-05-11T04:47:22.483Z,13.46
2023-05-11T04:48:22.411Z,13.39
2023-05-11T04:49:22.330Z,13.35
2023-05-11T04:50:22.260Z,13.37
2023-05-11T04:51:22.175Z,13.38
2023-05-11T04:52:22.091Z,13.42
2023-05-11T04:53:22.016Z,13.33
2023-05-11T04:54:21.934Z,13.35
2023-05-11T04:55:21.852Z,13.31
2023-05-11T04:56:21.773Z,13.30
2023-05-11T04:57:21.688Z,13.31
2023-05-11T04:58:21.622Z,13.31
2023-05-11T04:59:21.525Z,13.31
2023-05-11T05:00:21.775Z,13.41
2023-05-11T05:01:21.427Z,13.38
2023-05-11T05:02:21.305Z,13.42
2023-05-11T05:03:21.230Z,13.35
2023-05-11T05:04:21.180Z,13.37
2023-05-11T05:05:21.052Z,13.37
2023-05-11T05:06:20.976Z,13.42
2023-05-11T05:07:20.893Z,13.39
2023-05-11T05:08:20.812Z,13.49
2023-05-11T05:09:20.730Z,13.50
2023-05-11T05:10:20.784Z,13.52
2023-05-11T05:11:20.572Z,13.44
2023-05-11T05:12:20.495Z,13.57
2023-05-11T05:13:20.403Z,13.57
2023-05-11T05:14:20.338Z,13.50
2023-05-11T05:15:20.252Z,13.53
2023-05-11T05:16:20.196Z,13.62
2023-05-11T05:17:20.090Z,13.62
2023-05-11T05:18:20.070Z,13.59
2023-05-11T05:19:19.925Z,13.63
2023-05-11T05:20:19.946Z,13.56
2023-05-11T05:21:19.770Z,13.68
2023-05-11T05:22:19.688Z,13.57
2023-05-11T05:23:19.605Z,13.62
2023-05-11T05:24:19.531Z,13.60
2023-05-11T05:25:19.455Z,13.57
2023-05-11T05:26:19.374Z,13.50
2023-05-11T05:27:19.296Z,13.54
2023-05-11T05:28:19.215Z,13.57
2023-05-11T05:29:19.141Z,13.54
2023-05-11T05:30:19.271Z,13.67
2023-05-11T05:31:19.004Z,13.70
2023-05-11T05:32:18.893Z,13.72
2023-05-11T05:33:18.818Z,13.65
2023-05-11T05:34:18.742Z,13.70
2023-05-11T05:35:18.657Z,13.75
2023-05-11T05:36:18.571Z,13.72
2023-05-11T05:37:18.496Z,13.67
2023-05-11T05:38:18.421Z,13.72
2023-05-11T05:39:18.329Z,13.77
2023-05-11T05:40:18.729Z,13.68
2023-05-11T05:41:18.195Z,13.67
2023-05-11T05:42:18.104Z,13.70
2023-05-11T05:43:18.033Z,13.74
2023-05-11T05:44:17.930Z,13.74
2023-05-11T05:45:17.851Z,13.68
2023-05-11T05:46:17.819Z,13.77
2023-05-11T05:47:17.698Z,13.70
2023-05-11T05:48:17.623Z,13.75
2023-05-11T05:49:17.542Z,13.77
2023-05-11T05:50:17.726Z,13.63
2023-05-11T05:51:17.379Z,13.70
2023-05-11T05:52:17.306Z,13.74
2023-05-11T05:53:17.217Z,13.72
2023-05-11T05:54:17.136Z,13.75
2023-05-11T05:55:17.055Z,13.72
2023-05-11T05:56:16.967Z,13.70
2023-05-11T05:57:16.913Z,13.67
2023-05-11T05:58:16.818Z,13.67
2023-05-11T05:59:16.740Z,13.65
2023-05-11T06:00:16.809Z,13.60
2023-05-11T06:01:16.595Z,13.53
2023-05-11T06:02:16.530Z,13.49
2023-05-11T06:03:16.527Z,13.56
2023-05-11T06:04:16.367Z,13.56
2023-05-11T06:05:16.255Z,13.59
2023-05-11T06:06:16.177Z,13.59
2023-05-11T06:07:16.091Z,13.57
2023-05-11T06:08:16.017Z,13.54
2023-05-11T06:09:15.943Z,13.63
2023-05-11T06:10:15.922Z,13.63
2023-05-11T06:11:15.782Z,13.65
2023-05-11T06:12:15.695Z,13.67
2023-05-11T06:13:15.614Z,13.68
2023-05-11T06:14:15.539Z,13.71
2023-05-11T06:15:15.458Z,13.72
2023-05-11T06:16:15.392Z,13.74
2023-05-11T06:17:15.308Z,13.68
2023-05-11T06:18:15.245Z,13.68
2023-05-11T06:19:15.147Z,13.67
2023-05-11T06:20:15.069Z,13.65
2023-05-11T06:21:14.973Z,13.67
2023-05-11T06:22:14.905Z,13.67
2023-05-11T06:23:14.817Z,13.71
2023-05-11T06:24:14.748Z,13.70
2023-05-11T06:25:14.662Z,13.70
2023-05-11T06:26:14.574Z,13.68
2023-05-11T06:27:15.970Z,13.70
2023-05-11T06:28:14.422Z,13.75
2023-05-11T06:29:14.342Z,13.70
2023-05-11T06:30:14.258Z,13.74
2023-05-11T06:31:14.213Z,13.72
2023-05-11T06:32:14.098Z,13.77
2023-05-11T06:33:14.017Z,13.83
2023-05-11T06:34:13.948Z,13.79
2023-05-11T06:35:13.969Z,13.77
2023-05-11T06:36:13.786Z,13.67
2023-05-11T06:37:13.696Z,13.65
2023-05-11T06:38:13.628Z,13.62
2023-05-11T06:39:13.539Z,13.68
2023-05-11T06:40:13.493Z,13.62
2023-05-11T06:41:13.388Z,13.65
2023-05-11T06:42:13.304Z,13.72
2023-05-11T06:43:13.224Z,13.65
2023-05-11T06:44:13.144Z,13.75
2023-05-11T06:45:13.124Z,13.67
2023-05-11T06:46:13.018Z,13.74
2023-05-11T06:47:12.900Z,13.67
2023-05-11T06:48:12.980Z,13.70
2023-05-11T06:49:12.743Z,13.67
2023-05-11T06:50:12.663Z,13.65
2023-05-11T06:51:12.587Z,13.65
2023-05-11T06:52:12.514Z,13.78
2023-05-11T06:53:12.460Z,13.63
2023-05-11T06:54:12.349Z,13.75
2023-05-11T06:55:12.268Z,13.74
2023-05-11T06:56:12.200Z,13.67
2023-05-11T06:57:14.287Z,13.74
2023-05-11T06:58:12.052Z,13.70
2023-05-11T06:59:11.955Z,13.71
2023-05-11T07:00:11.867Z,13.77
2023-05-11T07:01:11.849Z,13.81
2023-05-11T07:02:11.715Z,13.78
2023-05-11T07:03:11.714Z,13.78
2023-05-11T07:04:11.592Z,13.74
2023-05-11T07:05:11.472Z,13.83
2023-05-11T07:06:11.383Z,13.72
2023-05-11T07:07:11.304Z,13.79
2023-05-11T07:08:11.240Z,13.81
2023-05-11T07:09:11.212Z,13.79
2023-05-11T07:10:11.066Z,13.78
2023-05-11T07:11:10.981Z,13.87
2023-05-11T07:12:10.904Z,13.75
2023-05-11T07:13:10.837Z,13.85
2023-05-11T07:14:10.755Z,13.90
2023-05-11T07:15:10.673Z,13.85
2023-05-11T07:16:10.589Z,13.92
2023-05-11T07:17:10.526Z,13.83
2023-05-11T07:18:10.452Z,13.77
2023-05-11T07:19:10.438Z,13.81
2023-05-11T07:20:10.263Z,13.83
2023-05-11T07:21:10.201Z,13.83
2023-05-11T07:22:10.108Z,13.86
2023-05-11T07:23:10.026Z,13.90
2023-05-11T07:24:09.958Z,13.90
2023-05-11T07:25:09.919Z,13.96
2023-05-11T07:26:09.792Z,13.96
2023-05-11T07:27:09.716Z,13.97
2023-05-11T07:28:09.627Z,14.00
2023-05-11T07:29:09.556Z,14.00
2023-05-11T07:30:09.487Z,13.99
2023-05-11T07:31:09.439Z,13.99
2023-05-11T07:32:09.311Z,13.99
2023-05-11T07:33:09.265Z,14.00
2023-05-11T07:34:09.155Z,14.03
2023-05-11T07:35:09.071Z,13.99
2023-05-11T07:36:08.998Z,13.97
2023-05-11T07:37:08.911Z,14.04
2023-05-11T07:38:08.836Z,14.00
2023-05-11T07:39:08.862Z,14.04
2023-05-11T07:40:08.687Z,14.03
2023-05-11T07:41:10.840Z,14.10
2023-05-11T07:42:08.619Z,14.04
2023-05-11T07:43:08.438Z,13.99
2023-05-11T07:44:08.357Z,13.93
2023-05-11T07:45:08.277Z,13.89
2023-05-11T07:46:08.242Z,13.79
2023-05-11T07:47:08.224Z,13.90
2023-05-11T07:48:08.107Z,13.81
2023-05-11T07:50:07.888Z,13.86
2023-05-11T07:51:07.793Z,13.77
2023-05-11T07:52:07.823Z,13.81
2023-05-11T07:53:07.738Z,13.89
2023-05-11T07:54:07.563Z,13.77
2023-05-11T07:55:07.494Z,13.78
2023-05-11T07:56:07.403Z,13.77
2023-05-11T07:57:07.323Z,13.81
2023-05-11T07:58:07.248Z,13.83
2023-05-11T07:59:07.266Z,13.96
2023-05-11T08:00:07.080Z,13.90
2023-05-11T08:01:07.123Z,13.92
2023-05-11T08:02:06.974Z,13.99
2023-05-11T08:03:06.880Z,13.93
2023-05-11T08:04:06.771Z,14.05
2023-05-11T08:05:06.799Z,14.05
2023-05-11T08:06:06.670Z,14.15
2023-05-11T08:07:06.528Z,14.18
2023-05-11T08:08:06.441Z,14.11
2023-05-11T08:09:06.384Z,14.18
2023-05-11T08:10:06.291Z,14.22
2023-05-11T08:11:06.204Z,14.20
2023-05-11T08:12:06.122Z,14.22
2023-05-11T08:13:06.043Z,14.25
2023-05-11T08:14:05.975Z,14.22
2023-05-11T08:15:05.902Z,14.28
2023-05-11T08:16:05.856Z,14.26
2023-05-11T08:17:05.735Z,14.30
2023-05-11T08:18:05.688Z,14.30
2023-05-11T08:19:05.659Z,14.33
2023-05-11T08:20:05.495Z,14.28
2023-05-11T08:21:05.414Z,14.30
2023-05-11T08:22:05.338Z,14.29
2023-05-11T08:23:05.253Z,14.30
2023-05-11T08:24:05.292Z,14.32
2023-05-11T08:25:05.102Z,14.43
2023-05-11T08:26:05.015Z,14.44
2023-05-11T08:27:04.939Z,14.29
2023-05-11T08:28:04.859Z,14.41
2023-05-11T08:29:04.787Z,14.35
2023-05-11T08:30:04.701Z,14.45
2023-05-11T08:31:04.626Z,14.44
2023-05-11T08:32:04.562Z,14.41
2023-05-11T08:33:11.951Z,14.43
2023-05-11T08:34:06.383Z,14.43
2023-05-11T08:35:04.474Z,14.36
2023-05-11T08:36:04.240Z,14.44
2023-05-11T08:37:04.150Z,14.45
2023-05-11T08:38:04.082Z,14.51
2023-05-11T08:39:03.987Z,14.53
2023-05-11T08:40:03.915Z,14.54
2023-05-11T08:41:03.835Z,14.58
2023-05-11T08:42:03.755Z,14.54
2023-05-11T08:43:03.668Z,14.55
2023-05-11T08:44:03.599Z,14.60
2023-05-11T08:45:03.512Z,14.66
2023-05-11T08:46:03.505Z,14.59
2023-05-11T08:47:20.986Z,14.60
2023-05-11T08:48:03.346Z,14.60
2023-05-11T08:49:03.213Z,14.78
2023-05-11T08:50:03.169Z,14.72
2023-05-11T08:51:03.036Z,14.81
2023-05-11T08:52:02.955Z,14.79
2023-05-11T08:53:02.877Z,14.78
2023-05-11T08:54:02.834Z,14.78
2023-05-11T08:55:02.721Z,14.79
2023-05-11T08:56:02.752Z,14.79
2023-05-11T08:57:02.566Z,14.86
2023-05-11T08:58:02.488Z,14.86
2023-05-11T08:59:02.408Z,14.89
2023-05-11T09:00:02.320Z,14.88
2023-05-11T09:01:02.290Z,14.88
2023-05-11T09:02:02.172Z,14.88
2023-05-11T09:03:02.157Z,14.86
2023-05-11T09:04:02.013Z,14.89
2023-05-11T09:05:01.956Z,14.88
2023-05-11T09:06:01.867Z,15.04
2023-05-11T09:07:01.780Z,15.09
2023-05-11T09:08:01.692Z,15.11
2023-05-11T09:09:01.623Z,15.07
2023-05-11T09:10:01.541Z,15.15
2023-05-11T09:11:01.469Z,15.15
2023-05-11T09:12:01.378Z,15.18
2023-05-11T09:13:01.313Z,15.19
2023-05-11T09:14:01.233Z,15.21
2023-05-11T09:15:02.600Z,15.27
2023-05-11T09:16:01.124Z,15.40
2023-05-11T09:17:01.030Z,15.51
2023-05-11T09:18:00.987Z,15.68
2023-05-11T09:19:00.849Z,15.72
2023-05-11T09:20:00.809Z,15.79
2023-05-11T09:21:00.671Z,15.91
2023-05-11T09:22:00.609Z,15.98
2023-05-11T09:23:00.520Z,16.08
2023-05-11T09:24:00.445Z,15.98
2023-05-11T09:25:00.374Z,16.08
2023-05-11T09:26:00.294Z,15.98
2023-05-11T09:27:00.210Z,15.98
2023-05-11T09:28:00.290Z,16.05
2023-05-11T09:29:03.037Z,16.01
2023-05-11T09:29:59.977Z,15.98
2023-05-11T09:30:59.909Z,16.00
2023-05-11T09:31:59.815Z,15.95
2023-05-11T09:32:59.973Z,16.00
2023-05-11T09:34:00.995Z,15.98
2023-05-11T09:34:59.591Z,15.97
2023-05-11T09:35:59.521Z,15.94
2023-05-11T09:36:59.437Z,15.97
2023-05-11T09:37:59.376Z,15.84
2023-05-11T09:38:59.275Z,15.91
2023-05-11T09:40:25.756Z,15.91
2023-05-11T09:40:59.117Z,15.79
2023-05-11T09:41:59.057Z,15.80
2023-05-11T09:42:58.959Z,15.73
2023-05-11T09:43:58.880Z,15.70
2023-05-11T09:44:58.807Z,15.75
2023-05-11T09:45:58.809Z,15.73
2023-05-11T09:46:58.655Z,15.72
2023-05-11T09:47:58.672Z,15.67
2023-05-11T09:48:58.489Z,15.72
2023-05-11T09:49:58.410Z,15.59
2023-05-11T09:50:58.332Z,15.52
2023-05-11T09:51:58.267Z,15.46
2023-05-11T09:52:58.180Z,15.44
2023-05-11T09:53:58.097Z,15.40
2023-05-11T09:54:58.024Z,15.37
2023-05-11T09:55:57.941Z,15.27
2023-05-11T09:56:57.868Z,15.35
2023-05-11T09:57:57.796Z,15.35
2023-05-11T09:58:57.750Z,15.40
2023-05-11T09:59:57.728Z,15.44
2023-05-11T10:00:57.548Z,15.43
2023-05-11T10:01:57.513Z,15.49
2023-05-11T10:02:57.469Z,15.46
2023-05-11T10:04:08.995Z,15.44
2023-05-11T10:04:57.238Z,15.37
2023-05-11T10:05:57.162Z,15.37
2023-05-11T10:06:57.093Z,15.40
2023-05-11T10:07:57.015Z,15.25
2023-05-11T10:08:56.926Z,15.29
2023-05-11T10:09:56.848Z,15.21
2023-05-11T10:10:56.770Z,15.25
2023-05-11T10:11:56.729Z,15.36
2023-05-11T10:12:56.605Z,15.37
2023-05-11T10:13:56.547Z,15.51
2023-05-11T10:14:56.469Z,15.44
2023-05-11T10:15:56.406Z,15.46
2023-05-11T10:16:56.298Z,15.40
2023-05-11T10:17:56.223Z,15.43
2023-05-11T10:18:56.176Z,15.35
2023-05-11T10:19:56.057Z,15.42
2023-05-11T10:20:55.984Z,15.49
2023-05-11T10:21:56.128Z,15.64
2023-05-11T10:22:55.829Z,15.64
2023-05-11T10:23:55.751Z,15.70
2023-05-11T10:24:55.665Z,15.73
2023-05-11T10:25:55.596Z,15.83
2023-05-11T10:26:55.514Z,15.90
2023-05-11T10:27:55.442Z,15.91
2023-05-11T10:28:55.358Z,15.94
2023-05-11T10:29:55.304Z,15.76
2023-05-11T10:30:55.201Z,15.76
2023-05-11T10:31:55.249Z,15.72
2023-05-11T10:32:55.056Z,15.72
2023-05-11T10:33:54.968Z,15.68
2023-05-11T10:34:54.889Z,15.65
2023-05-11T10:35:54.807Z,15.65
2023-05-11T10:36:54.726Z,15.67
2023-05-11T10:37:54.704Z,15.67
2023-05-11T10:38:54.571Z,15.57
2023-05-11T10:39:54.487Z,15.59
2023-05-11T10:40:54.418Z,15.75
2023-05-11T10:41:54.336Z,15.75
2023-05-11T10:42:54.264Z,15.72
2023-05-11T10:43:54.192Z,15.75
2023-05-11T10:44:54.099Z,15.77
2023-05-11T10:45:54.073Z,15.75
2023-05-11T10:46:53.942Z,15.80
2023-05-11T10:47:53.896Z,15.73
2023-05-11T10:48:53.784Z,15.73
2023-05-11T10:49:53.708Z,15.76
2023-05-11T10:50:53.625Z,15.77
2023-05-11T10:51:53.560Z,15.77
2023-05-11T10:52:53.479Z,15.83
2023-05-11T10:53:53.391Z,15.68
2023-05-11T10:54:53.348Z,15.68
2023-05-11T10:55:53.243Z,15.72
2023-05-11T10:56:53.158Z,15.67
2023-05-11T10:57:53.081Z,15.59
2023-05-11T10:58:53.001Z,15.70
2023-05-11T10:59:52.924Z,15.61
2023-05-11T11:00:52.884Z,15.68
2023-05-11T11:01:52.772Z,15.59
2023-05-11T11:02:52.714Z,15.61
2023-05-11T11:03:52.722Z,15.57
2023-05-11T11:04:52.530Z,15.51
2023-05-11T11:05:52.506Z,15.61
2023-05-11T11:06:52.373Z,15.58
2023-05-11T11:07:52.301Z,15.52
2023-05-11T11:08:52.220Z,15.54
2023-05-11T11:09:52.160Z,15.59
2023-05-11T11:10:52.067Z,15.59
2023-05-11T11:11:51.982Z,15.58
2023-05-11T11:12:51.902Z,15.54
2023-05-11T11:13:51.834Z,15.52
2023-05-11T11:14:51.755Z,15.51
2023-05-11T11:15:51.673Z,15.58
2023-05-11T11:16:51.618Z,15.52
2023-05-11T11:17:51.597Z,15.52
2023-05-11T11:18:51.477Z,15.51
2023-05-11T11:19:51.359Z,15.51
2023-05-11T11:20:51.288Z,15.54
2023-05-11T11:21:51.199Z,15.44
2023-05-11T11:22:51.177Z,15.47
2023-05-11T11:23:51.046Z,15.49
2023-05-11T11:24:50.968Z,15.42
2023-05-11T11:25:50.886Z,15.49
2023-05-11T11:26:50.873Z,15.47
2023-05-11T11:27:50.737Z,15.37
2023-05-11T11:28:50.655Z,15.37
2023-05-11T11:29:50.576Z,15.37
2023-05-11T11:30:50.528Z,15.39
2023-05-11T11:31:50.412Z,15.27
2023-05-11T11:32:50.395Z,15.29
2023-05-11T11:33:50.264Z,15.22
2023-05-11T11:34:50.179Z,15.17
2023-05-11T11:35:50.214Z,15.17
2023-05-11T11:36:50.038Z,15.17
2023-05-11T11:37:49.944Z,15.25
2023-05-11T11:38:49.865Z,15.22
2023-05-11T11:39:49.790Z,15.28
2023-05-11T11:40:51.309Z,15.28
2023-05-11T11:41:49.632Z,15.25
2023-05-11T11:42:49.568Z,15.28
2023-05-11T11:43:49.476Z,15.40
2023-05-11T11:44:49.391Z,15.40
2023-05-11T11:45:49.317Z,15.39
2023-05-11T11:46:49.290Z,15.27
2023-05-11T11:47:49.212Z,15.24
2023-05-11T11:48:49.089Z,15.22
2023-05-11T11:49:49.032Z,15.19
2023-05-11T11:50:48.940Z,15.22
2023-05-11T11:51:48.849Z,15.25
2023-05-11T11:52:48.765Z,15.27
2023-05-11T11:53:48.690Z,15.31
2023-05-11T11:54:48.606Z,15.18
2023-05-11T11:55:48.534Z,15.27
2023-05-11T11:56:48.454Z,15.28
2023-05-11T11:57:48.367Z,15.15
2023-05-11T11:58:48.290Z,15.18
2023-05-11T11:59:48.219Z,15.27
2023-05-11T12:00:48.145Z,15.24
2023-05-11T12:01:48.051Z,15.22
2023-05-11T12:02:48.034Z,15.36
2023-05-11T12:03:48.007Z,15.39
2023-05-11T12:04:47.877Z,15.37
2023-05-11T12:05:47.752Z,15.21
2023-05-11T12:06:47.660Z,15.27
2023-05-11T12:07:47.582Z,15.35
2023-05-11T12:08:47.501Z,15.24
2023-05-11T12:09:47.472Z,15.22
2023-05-11T12:10:47.345Z,15.27
2023-05-11T12:11:47.262Z,15.19
2023-05-11T12:12:47.227Z,15.22
2023-05-11T12:13:47.108Z,15.24
2023-05-11T12:14:47.037Z,15.24
2023-05-11T12:15:46.954Z,15.15
2023-05-11T12:16:46.909Z,15.25
2023-05-11T12:17:46.802Z,15.28
2023-05-11T12:18:46.757Z,15.14
2023-05-11T12:19:46.680Z,15.09
2023-05-11T12:20:46.551Z,15.17
2023-05-11T12:21:46.494Z,15.03
2023-05-11T12:22:46.395Z,15.09
2023-05-11T12:23:46.315Z,15.00
2023-05-11T12:24:46.253Z,15.03
2023-05-11T12:25:46.164Z,14.94
2023-05-11T12:26:46.087Z,14.97
2023-05-11T12:27:46.000Z,15.02
2023-05-11T12:28:45.920Z,15.00
2023-05-11T12:29:45.857Z,15.06
2023-05-11T12:30:45.769Z,15.06
2023-05-11T12:31:45.781Z,14.92
2023-05-11T12:32:45.656Z,15.03
2023-05-11T12:33:45.536Z,15.04
2023-05-11T12:34:45.455Z,15.09
2023-05-11T12:35:45.437Z,15.06
2023-05-11T12:36:45.299Z,15.06
2023-05-11T12:37:45.219Z,15.09
2023-05-11T12:38:45.137Z,15.02
2023-05-11T12:39:45.059Z,15.03
2023-05-11T12:40:45.084Z,14.99
2023-05-11T12:41:44.903Z,15.02
2023-05-11T12:42:44.826Z,15.02
2023-05-11T12:43:44.743Z,14.96
2023-05-11T12:44:44.680Z,14.94
2023-05-11T12:45:44.593Z,15.04
2023-05-11T12:46:44.576Z,15.11
2023-05-11T12:47:44.478Z,15.09
2023-05-11T12:48:44.351Z,15.17
2023-05-11T12:49:44.277Z,15.22
2023-05-11T12:50:44.196Z,15.17
2023-05-11T12:51:44.111Z,15.10
2023-05-11T12:52:44.029Z,15.24